Time;durP1;ratioP1;P1;durP2;ratioP2;P2;SDS_P1;SDS_P2;PMS_P1;PMS_P2;Temp;Humidity;BMP_temperature;BMP_pressure;BME280_temperature;BME280_humidity;BME280_pressure;Samples;Min_cycle;Max_cycle;Signal;HPM_P1;HPM_P2
2022/07/12 00:01:48;;;;;;;3.60;3.35;;;;;;;15.29;58.71;95499.75;4988249;28;20212;-67
2022/07/12 00:04:16;;;;;;;4.05;3.75;;;;;;;15.17;59.33;95495.16;4986788;28;20262;-67
2022/07/12 00:06:43;;;;;;;3.03;2.83;;;;;;;15.32;59.13;95494.50;4985109;28;20214;-66
2022/07/12 00:09:10;;;;;;;6.78;4.63;;;;;;;15.11;60.01;95500.53;4982690;28;20405;-68
2022/07/12 00:11:37;;;;;;;8.13;6.35;;;;;;;15.05;60.25;95495.72;4989435;28;20218;-67
2022/07/12 00:14:04;;;;;;;2.58;2.38;;;;;;;15.12;60.27;95502.22;4984947;28;20689;-67
2022/07/12 00:16:31;;;;;;;3.85;3.55;;;;;;;15.24;59.82;95501.69;4987309;28;20912;-67
2022/07/12 00:18:58;;;;;;;2.53;2.40;;;;;;;15.04;60.16;95500.00;4987547;28;20215;-68
2022/07/12 00:21:26;;;;;;;4.20;3.72;;;;;;;15.11;60.35;95496.25;4985754;28;20588;-68
2022/07/12 00:23:53;;;;;;;4.38;3.08;;;;;;;15.03;60.26;95494.94;4985232;28;20199;-67
2022/07/12 00:26:20;;;;;;;4.15;3.85;;;;;;;15.17;60.48;95497.72;4985989;28;20305;-67
2022/07/12 00:28:47;;;;;;;7.05;2.97;;;;;;;15.27;59.66;95502.38;4983061;28;20231;-67
2022/07/12 00:31:14;;;;;;;3.40;2.20;;;;;;;15.24;59.51;95502.50;4983332;28;20686;-66
2022/07/12 00:33:41;;;;;;;5.13;2.70;;;;;;;15.18;59.84;95494.25;4985271;28;20211;-66
2022/07/12 00:36:08;;;;;;;3.70;3.00;;;;;;;15.07;60.89;95493.91;4986923;28;20215;-67
2022/07/12 00:38:36;;;;;;;3.08;2.20;;;;;;;15.12;60.67;95495.34;4986035;28;20212;-66
2022/07/12 00:41:03;;;;;;;5.10;3.08;;;;;;;15.34;59.59;95494.41;4985602;28;20273;-66
2022/07/12 00:43:30;;;;;;;2.70;2.50;;;;;;;15.20;60.40;95488.19;4986565;28;20916;-68
2022/07/12 00:45:57;;;;;;;4.90;2.83;;;;;;;15.36;59.96;95484.91;4985940;28;20203;-67
2022/07/12 00:48:24;;;;;;;3.47;2.88;;;;;;;15.50;58.84;95483.41;4986868;28;20235;-67
2022/07/12 00:50:51;;;;;;;2.67;2.47;;;;;;;15.62;57.60;95484.56;4984779;28;20212;-67
2022/07/12 00:53:23;;;;;;;2.45;1.85;;;;;;;15.46;58.06;95486.16;4988213;28;21653;-66
2022/07/12 00:55:54;;;;;;;2.22;2.13;;;;;;;15.40;59.20;95518.00;4986292;28;20510;-67
2022/07/12 00:58:22;;;;;;;2.10;2.00;;;;;;;;;;4986133;28;20288;-66
2022/07/12 01:00:49;;;;;;;3.13;1.92;;;;;;;;;;4985327;28;20330;-67
2022/07/12 01:03:15;;;;;;;2.40;2.22;;;;;;;;;;4980866;28;23022;-66
2022/07/12 01:05:42;;;;;;;3.08;2.15;;;;;;;;;;4983547;28;20285;-66
2022/07/12 01:08:09;;;;;;;2.88;2.10;;;;;;;;;;4987675;28;20252;-66
2022/07/12 01:10:36;;;;;;;3.60;1.42;;;;;;;;;;4984941;28;20218;-67
2022/07/12 01:13:04;;;;;;;1.98;1.88;;;;;;;;;;4986669;28;20949;-66
2022/07/12 01:15:30;;;;;;;1.55;1.30;;;;;;;;;;4988239;28;20262;-67
2022/07/12 01:17:57;;;;;;;4.68;1.92;;;;;;;;;;4983785;28;20253;-67
2022/07/12 01:20:24;;;;;;;1.92;1.83;;;;;;;;;;4986160;28;20248;-67
2022/07/12 01:22:53;;;;;;;4.15;1.60;;;;;;;;;;4984800;28;20713;-68
2022/07/12 01:25:20;;;;;;;1.85;1.67;;;;;;;;;;4985532;28;20210;-66
2022/07/12 01:27:47;;;;;;;3.20;1.70;;;;;;;;;;4984742;28;20730;-68
2022/07/12 01:30:13;;;;;;;4.63;2.20;;;;;;;;;;4983267;28;20920;-68
2022/07/12 01:32:40;;;;;;;3.75;1.98;;;;;;;;;;4983892;28;21070;-67
2022/07/12 01:35:07;;;;;;;2.20;2.03;;;;;;;;;;4985529;28;20211;-67
2022/07/12 01:37:34;;;;;;;8.00;2.85;;;;;;;;;;4986109;28;20204;-67
2022/07/12 01:40:04;;;;;;;2.85;1.90;;;;;;;15.55;nan;95552.34;4985192;28;20210;-67
2022/07/12 01:42:31;;;;;;;2.10;1.88;;;;;;;;;;4986074;28;20215;-68
2022/07/12 01:44:58;;;;;;;2.10;1.90;;;;;;;;;;4984383;28;20234;-67
2022/07/12 01:47:25;;;;;;;2.40;2.25;;;;;;;;;;4982472;28;20652;-68
2022/07/12 01:49:52;;;;;;;3.38;2.15;;;;;;;;;;4982912;28;20677;-68
2022/07/12 01:52:18;;;;;;;3.35;2.33;;;;;;;;;;4983488;28;20211;-67
2022/07/12 01:54:45;;;;;;;5.28;2.03;;;;;;;;;;4984105;28;20272;-68
2022/07/12 01:57:13;;;;;;;3.67;2.22;;;;;;;;;;4983881;28;20215;-67
2022/07/12 01:59:39;;;;;;;2.55;2.35;;;;;;;;;;4985974;28;20744;-67
2022/07/12 02:02:07;;;;;;;2.72;2.53;;;;;;;;;;4986032;28;20273;-67
2022/07/12 02:04:33;;;;;;;2.75;2.28;;;;;;;;;;4985698;28;20309;-67
2022/07/12 02:07:00;;;;;;;2.50;2.40;;;;;;;;;;4986961;28;20215;-69
2022/07/12 02:09:27;;;;;;;5.22;2.42;;;;;;;14.64;nan;95567.38;4985389;28;20333;-68
2022/07/12 02:11:54;;;;;;;3.00;2.80;;;;;;;;;;4985974;28;20203;-68
2022/07/12 02:14:21;;;;;;;3.40;2.15;;;;;;;;;;4985442;28;20273;-67
2022/07/12 02:16:48;;;;;;;4.05;2.42;;;;;;;;;;4984824;28;20294;-65
2022/07/12 02:19:15;;;;;;;3.40;3.13;;;;;;;;;;4985055;28;20207;-66
2022/07/12 02:21:41;;;;;;;2.97;2.78;;;;;;;;;;4984931;28;20207;-67
2022/07/12 02:24:08;;;;;;;2.90;2.70;;;;;;;;;;4986916;28;20226;-67
2022/07/12 02:26:35;;;;;;;7.63;2.83;;;;;;;;;;4986853;28;20256;-68
2022/07/12 02:29:02;;;;;;;2.83;2.60;;;;;;;;;;4985647;28;20721;-66
2022/07/12 02:31:30;;;;;;;9.85;3.85;;;;;;;;;;4984113;28;20278;-67
2022/07/12 02:33:57;;;;;;;6.97;2.80;;;;;;;;;;4985341;28;20203;-67
2022/07/12 02:36:24;;;;;;;4.28;2.75;;;;;;;;;;4985552;28;20265;-67
2022/07/12 02:38:50;;;;;;;3.63;2.53;;;;;;;;;;4986432;28;20295;-66
2022/07/12 02:41:17;;;;;;;4.90;2.70;;;;;;;14.62;nan;95579.41;4984144;28;20207;-67
2022/07/12 02:43:44;;;;;;;3.42;3.05;;;;;;;;;;4984825;28;20417;-67
2022/07/12 02:46:11;;;;;;;2.83;2.63;;;;;;;;;;4985713;28;20600;-67
2022/07/12 02:48:40;;;;;;;3.17;2.53;;;;;;;;;;4986016;28;20230;-68
2022/07/12 02:51:08;;;;;;;3.92;2.55;;;;;;;14.86;nan;95582.66;4984687;28;20212;-66
2022/07/12 02:53:35;;;;;;;3.00;2.78;;;;;;;14.80;nan;95634.97;4984904;28;20211;-67
2022/07/12 02:56:02;;;;;;;3.30;2.88;;;;;;;;;;4988091;28;20237;-67
2022/07/12 02:58:29;;;;;;;7.10;3.28;;;;;;;;;;4988312;28;20200;-69
2022/07/12 03:00:55;;;;;;;2.88;2.47;;;;;;;;;;4987360;28;20219;-66
2022/07/12 03:03:22;;;;;;;5.07;2.83;;;;;;;;;;4987774;28;20200;-66
2022/07/12 03:05:50;;;;;;;3.58;2.80;;;;;;;;;;4989986;28;20317;-67
2022/07/12 03:08:17;;;;;;;2.90;2.55;;;;;;;;;;4989446;28;20211;-66
2022/07/12 03:10:43;;;;;;;3.10;2.80;;;;;;;;;;4988019;28;20839;-66
2022/07/12 03:13:10;;;;;;;3.30;3.00;;;;;;;;;;4988245;28;20199;-67
2022/07/12 03:15:37;;;;;;;7.93;3.47;;;;;;;;;;4986159;28;20253;-68
2022/07/12 03:18:03;;;;;;;3.22;3.00;;;;;;;;;;4985870;28;20787;-68
2022/07/12 03:20:30;;;;;;;4.32;3.35;;;;;;;;;;4989394;28;20218;-65
2022/07/12 03:22:58;;;;;;;4.80;3.67;;;;;;;;;;4987366;28;20728;-67
2022/07/12 03:25:25;;;;;;;6.03;3.38;;;;;;;;;;4988137;28;20192;-68
2022/07/12 03:27:51;;;;;;;3.25;2.60;;;;;;;;;;4988951;28;20196;-67
2022/07/12 03:30:18;;;;;;;3.47;2.90;;;;;;;;;;4989008;28;20729;-67
2022/07/12 03:32:45;;;;;;;3.03;2.83;;;;;;;;;;4988659;28;20414;-67
2022/07/12 03:35:11;;;;;;;4.38;3.38;;;;;;;;;;4989910;28;20208;-68
2022/07/12 03:37:42;;;;;;;3.65;2.63;;;;;;;;;;4988305;28;20697;-67
2022/07/12 03:40:11;;;;;;;10.40;2.80;;;;;;;;;;4990407;28;20215;-68
2022/07/12 03:42:38;;;;;;;3.72;2.95;;;;;;;;;;4986720;28;20218;-68
2022/07/12 03:45:05;;;;;;;3.20;2.20;;;;;;;;;;4986651;28;20212;-66
2022/07/12 03:47:32;;;;;;;3.03;2.72;;;;;;;;;;4988161;28;20199;-68
2022/07/12 03:49:58;;;;;;;3.30;3.00;;;;;;;;;;4988575;28;20236;-68
2022/07/12 03:52:25;;;;;;;5.80;2.80;;;;;;;;;;4988014;28;20196;-69
2022/07/12 03:54:51;;;;;;;4.60;2.95;;;;;;;;;;4988482;28;20200;-68
2022/07/12 03:57:21;;;;;;;3.28;2.78;;;;;;;22.00;nan;95612.28;4986616;28;21054;-65
2022/07/12 03:59:48;;;;;;;4.10;2.95;;;;;;;;;;4987510;28;20212;-68
2022/07/12 04:02:15;;;;;;;3.88;3.58;;;;;;;23.06;nan;95607.19;4985576;28;20601;-67
2022/07/12 04:04:42;;;;;;;2.80;2.60;;;;;;;23.38;nan;95614.31;4984624;28;20235;-67
2022/07/12 04:07:09;;;;;;;9.23;4.00;;;;;;;23.54;nan;95614.00;4985664;28;20640;-68
2022/07/12 04:09:36;;;;;;;4.03;3.63;;;;;;;23.41;nan;95609.75;4985768;28;20936;-68
2022/07/12 04:12:03;;;;;;;6.07;3.35;;;;;;;23.73;nan;95604.72;4985422;28;20200;-67
2022/07/12 04:14:31;;;;;;;13.50;10.85;;;;;;;;;;4988749;28;20728;-69
2022/07/12 04:16:58;;;;;;;18.33;12.10;;;;;;;23.12;nan;95623.22;4988148;28;20244;-66
2022/07/12 04:19:27;;;;;;;11.27;10.13;;;;;;;;;;4988425;28;20210;-67
2022/07/12 04:21:54;;;;;;;8.52;5.57;;;;;;;;;;4988039;28;20211;-66
2022/07/12 04:24:20;;;;;;;6.20;4.55;;;;;;;;;;4987261;28;20601;-68
2022/07/12 04:26:48;;;;;;;7.82;5.72;;;;;;;;;;4986767;28;20208;-67
2022/07/12 04:29:14;;;;;;;6.22;3.20;;;;;;;;;;4987382;28;20234;-66
2022/07/12 04:31:42;;;;;;;8.70;5.82;;;;;;;;;;4986061;28;20215;-67
2022/07/12 04:34:09;;;;;;;13.73;10.40;;;;;;;;;;4987849;28;20215;-66
2022/07/12 04:36:36;;;;;;;8.75;6.82;;;;;;;;;;4985579;28;20223;-66
2022/07/12 04:39:03;;;;;;;6.30;4.70;;;;;;;-142.91;nan;109037.56;4988633;28;20207;-67
2022/07/12 04:41:30;;;;;;;6.03;3.72;;;;;;;-142.91;100.00;56616.03;4986418;28;20204;-66
2022/07/12 04:43:57;;;;;;;6.60;4.03;;;;;;;-142.91;100.00;56616.03;4987728;28;20212;-67
2022/07/12 04:46:24;;;;;;;8.35;3.72;;;;;;;-142.91;100.00;56616.03;4987465;28;21163;-67
2022/07/12 04:48:52;;;;;;;5.20;4.80;;;;;;;-142.91;100.00;56616.03;4984862;28;20215;-66
2022/07/12 04:51:19;;;;;;;9.77;5.32;;;;;;;-142.91;100.00;56616.03;4985408;28;20306;-67
2022/07/12 04:53:46;;;;;;;11.52;8.15;;;;;;;-142.91;100.00;56616.03;4985847;28;20219;-66
2022/07/12 04:56:12;;;;;;;3.58;3.30;;;;;;;-142.91;100.00;56616.03;4986502;28;20573;-67
2022/07/12 04:58:39;;;;;;;6.80;2.97;;;;;;;-142.91;100.00;56616.03;4986647;28;20207;-67
2022/07/12 05:01:07;;;;;;;4.75;2.95;;;;;;;-142.91;100.00;56616.03;4986630;28;20204;-67
2022/07/12 05:03:34;;;;;;;9.98;7.95;;;;;;;-142.91;100.00;56616.03;4987376;28;20215;-67
2022/07/12 05:06:02;;;;;;;9.60;7.55;;;;;;;-142.91;100.00;56616.03;4985850;28;20231;-67
2022/07/12 05:08:29;;;;;;;7.85;4.15;;;;;;;-142.91;100.00;56616.03;4986306;28;20674;-68
2022/07/12 05:10:56;;;;;;;6.53;4.35;;;;;;;-142.91;100.00;56616.03;4987462;28;20593;-67
2022/07/12 05:13:23;;;;;;;4.80;4.30;;;;;;;-142.91;100.00;56616.03;4985070;28;20211;-66
2022/07/12 05:15:50;;;;;;;7.47;3.85;;;;;;;-142.91;100.00;56616.03;4986093;28;20250;-67
2022/07/12 05:18:16;;;;;;;6.13;3.42;;;;;;;-142.91;100.00;56616.03;4985300;28;20633;-66
2022/07/12 05:20:43;;;;;;;4.30;2.97;;;;;;;-142.91;100.00;56616.03;4986418;28;20211;-66
2022/07/12 05:23:11;;;;;;;5.55;2.63;;;;;;;-142.91;100.00;56616.03;4985532;28;20657;-67
2022/07/12 05:25:38;;;;;;;4.20;2.80;;;;;;;-142.91;100.00;56616.03;4987615;28;21009;-66
2022/07/12 05:28:05;;;;;;;6.25;2.53;;;;;;;-142.91;100.00;56616.03;4983689;28;20218;-65
2022/07/12 05:30:33;;;;;;;5.72;2.55;;;;;;;-142.91;100.00;56616.03;4986873;28;20227;-69
2022/07/12 05:33:00;;;;;;;5.43;2.95;;;;;;;-142.91;100.00;56616.03;4987241;28;20587;-67
2022/07/12 05:35:27;;;;;;;4.45;2.60;;;;;;;-142.91;100.00;56616.03;4988410;28;20238;-67
2022/07/12 05:37:53;;;;;;;4.82;2.65;;;;;;;-142.91;100.00;56616.03;4985288;28;20608;-68
2022/07/12 05:40:21;;;;;;;3.95;3.25;;;;;;;-142.91;100.00;56616.03;4986604;28;20206;-69
2022/07/12 05:42:48;;;;;;;4.05;2.83;;;;;;;34.70;nan;95610.91;4985238;28;20215;-68
2022/07/12 05:45:15;;;;;;;4.28;2.72;;;;;;;34.73;nan;95610.53;4988735;28;20260;-68
2022/07/12 05:47:42;;;;;;;9.43;3.22;;;;;;;;;;4984742;28;20215;-68
2022/07/12 05:50:10;;;;;;;7.22;3.38;;;;;;;34.47;nan;95617.16;4987868;28;20223;-68
2022/07/12 05:55:22;;;;;;;4.63;3.15;;;;;;;33.20;nan;95613.84;4991032;28;20673;-67
2022/07/12 05:57:49;;;;;;;10.82;3.13;;;;;;;33.28;nan;95619.91;4984792;28;20287;-67
2022/07/12 06:00:16;;;;;;;4.05;3.30;;;;;;;33.48;nan;95614.94;4987432;28;20196;-66
2022/07/12 06:02:43;;;;;;;3.58;3.22;;;;;;;33.63;nan;95602.63;4986518;28;20203;-67
2022/07/12 06:05:10;;;;;;;5.55;3.22;;;;;;;33.27;nan;95612.16;4988388;28;20764;-67
2022/07/12 06:07:36;;;;;;;4.63;3.17;;;;;;;32.94;nan;95617.66;4984751;28;20293;-67
2022/07/12 06:10:04;;;;;;;5.50;3.85;;;;;;;;;;4987040;28;20318;-68
2022/07/12 06:12:32;;;;;;;7.57;4.55;;;;;;;33.32;nan;95615.09;4984991;28;20281;-68
2022/07/12 06:14:59;;;;;;;7.30;4.40;;;;;;;33.65;nan;95605.06;4986369;28;20906;-70
2022/07/12 06:17:25;;;;;;;4.43;2.60;;;;;;;33.11;nan;95595.47;4985240;28;20605;-67
2022/07/12 06:19:52;;;;;;;5.68;3.22;;;;;;;32.97;nan;95598.88;4986281;28;20691;-68
2022/07/12 06:22:21;;;;;;;5.85;2.58;;;;;;;32.64;nan;95605.34;4985145;28;20208;-67
2022/07/12 06:24:47;;;;;;;3.20;2.90;;;;;;;32.32;nan;95601.88;4983754;28;20219;-66
2022/07/12 06:27:14;;;;;;;5.78;2.92;;;;;;;31.90;nan;95596.94;4986764;28;20223;-67
2022/07/12 06:29:47;;;;;;;2.80;2.50;;;;;;;31.43;nan;95589.78;4985394;28;20207;-68
2022/07/12 06:32:14;;;;;;;2.97;2.17;;;;;;;30.82;nan;95599.94;4986913;28;20219;-68
2022/07/12 06:34:41;;;;;;;6.25;2.70;;;;;;;30.24;nan;95606.00;4989646;28;20211;-67
2022/07/12 06:37:08;;;;;;;8.27;2.42;;;;;;;;;;4989279;28;20254;-67
2022/07/12 06:39:35;;;;;;;4.57;2.42;;;;;;;30.30;nan;95600.97;4988863;28;20720;-67
2022/07/12 06:42:03;;;;;;;4.40;2.15;;;;;;;29.80;nan;95593.03;4989718;28;20207;-67
2022/07/12 06:44:30;;;;;;;1.67;1.52;;;;;;;29.45;nan;95601.81;4989722;28;20543;-68
2022/07/12 06:46:59;;;;;;;8.65;2.20;;;;;;;28.66;nan;95607.03;4989381;28;20210;-68
2022/07/12 06:49:26;;;;;;;2.50;1.95;;;;;;;28.33;nan;95596.22;4988771;28;20651;-67
2022/07/12 06:51:53;;;;;;;3.83;1.77;;;;;;;27.65;nan;95593.06;4990379;28;20215;-69
2022/07/12 06:54:20;;;;;;;4.55;1.65;;;;;;;;;;4987687;28;20574;-69
2022/07/12 06:56:46;;;;;;;4.75;1.83;;;;;;;;;;4990126;28;20703;-68
2022/07/12 06:59:13;;;;;;;1.80;1.70;;;;;;;;;;4988607;28;20203;-67
2022/07/12 07:01:39;;;;;;;3.63;1.58;;;;;;;;;;4989759;28;20227;-67
2022/07/12 07:04:07;;;;;;;3.92;1.73;;;;;;;;;;4988166;28;20212;-68
2022/07/12 07:06:34;;;;;;;2.60;1.50;;;;;;;;;;4988989;28;20270;-68
2022/07/12 07:09:00;;;;;;;4.10;1.13;;;;;;;;;;4987990;28;20215;-69
2022/07/12 07:11:27;;;;;;;2.15;1.55;;;;;;;;;;4989080;28;20220;-69
2022/07/12 07:13:55;;;;;;;4.20;3.10;;;;;;;;;;4990128;28;20200;-69
2022/07/12 07:16:23;;;;;;;3.45;2.00;;;;;;;;;;4987776;28;20235;-68
2022/07/12 07:18:50;;;;;;;4.38;3.40;;;;;;;;;;4987124;28;20266;-67
2022/07/12 07:21:17;;;;;;;6.88;4.40;;;;;;;;;;4988872;28;20204;-68
2022/07/12 07:23:44;;;;;;;6.72;2.63;;;;;;;;;;4987090;28;20208;-68
2022/07/12 07:26:11;;;;;;;5.72;2.95;;;;;;;;;;4988615;28;20227;-68
2022/07/12 07:30:52;;;;;;;4.47;2.55;;;;;;;;;;4987461;28;20207;-69
2022/07/12 07:31:23;;;;;;;6.03;1.65;;;;;;;;;;4987481;28;20232;-69
2022/07/12 07:33:49;;;;;;;4.90;2.70;;;;;;;;;;4987455;28;20208;-69
2022/07/12 07:36:16;;;;;;;2.97;1.33;;;;;;;;;;4988773;28;20207;-69
2022/07/12 07:38:44;;;;;;;14.57;6.80;;;;;;;;;;4987024;28;20208;-68
2022/07/12 07:41:10;;;;;;;5.78;2.40;;;;;;;;;;4984492;28;20285;-68
2022/07/12 07:43:37;;;;;;;2.80;2.55;;;;;;;;;;4985530;28;20294;-68
2022/07/12 07:46:03;;;;;;;4.80;2.22;;;;;;;;;;4987881;28;20721;-68
2022/07/12 07:48:30;;;;;;;3.28;1.90;;;;;;;;;;4987628;28;20203;-68
2022/07/12 07:50:56;;;;;;;4.95;1.73;;;;;;;;;;4986978;28;20232;-68
2022/07/12 07:53:24;;;;;;;4.22;1.42;;;;;;;;;;4987342;28;20212;-69
2022/07/12 07:55:52;;;;;;;4.35;1.83;;;;;;;;;;4988423;28;20230;-69
2022/07/12 07:58:20;;;;;;;5.18;1.52;;;;;;;;;;4988880;28;20287;-68
2022/07/12 08:00:47;;;;;;;1.73;1.35;;;;;;;;;;4988416;28;20211;-68
2022/07/12 08:03:13;;;;;;;3.20;1.73;;;;;;;;;;4986963;28;20207;-68
2022/07/12 08:05:40;;;;;;;4.93;1.52;;;;;;;;;;4987936;28;20566;-69
2022/07/12 08:08:06;;;;;;;4.47;1.30;;;;;;;;;;4988814;28;21175;-68
2022/07/12 08:10:33;;;;;;;2.65;1.67;;;;;;;;;;4988208;28;20273;-69
2022/07/12 08:13:01;;;;;;;1.88;1.20;;;;;;;;;;4985673;28;20258;-68
2022/07/12 08:15:27;;;;;;;6.35;1.48;;;;;;;;;;4987941;28;20301;-67
2022/07/12 08:17:54;;;;;;;4.20;1.55;;;;;;;;;;4987167;28;20218;-68
2022/07/12 08:20:21;;;;;;;4.30;1.98;;;;;;;;;;4987749;28;20207;-67
2022/07/12 08:22:48;;;;;;;20.52;2.03;;;;;;;;;;4987057;28;20207;-69
2022/07/12 08:25:15;;;;;;;3.10;1.23;;;;;;;;;;4986939;28;20197;-68
2022/07/12 08:27:41;;;;;;;4.05;1.50;;;;;;;;;;4988931;28;20218;-68
2022/07/12 08:30:10;;;;;;;1.45;1.35;;;;;;;;;;4987290;28;20195;-67
2022/07/12 08:32:37;;;;;;;3.95;1.75;;;;;;;;;;4986045;28;20753;-67
2022/07/12 08:35:05;;;;;;;3.38;1.90;;;;;;;;;;4986652;28;20290;-70
2022/07/12 08:37:32;;;;;;;3.92;1.40;;;;;;;;;;4986592;28;20678;-68
2022/07/12 08:39:58;;;;;;;1.45;1.38;;;;;;;;;;4987969;28;20208;-68
2022/07/12 08:42:25;;;;;;;3.50;1.67;;;;;;;;;;4986545;28;20204;-68
2022/07/12 08:44:55;;;;;;;7.82;2.63;;;;;;;;;;4986016;28;20265;-67
2022/07/12 08:47:22;;;;;;;2.83;1.75;;;;;;;;;;4987162;28;20204;-67
2022/07/12 08:50:04;;;;;;;5.65;2.38;;;;;;;;;;4988305;28;20495;-68
2022/07/12 08:52:30;;;;;;;2.40;2.20;;;;;;;;;;4984609;28;20230;-67
2022/07/12 08:54:57;;;;;;;6.53;4.63;;;;;;;;;;4986819;28;20653;-68
2022/07/12 08:57:30;;;;;;;5.43;2.78;;;;;;;;;;4988816;28;20203;-68
2022/07/12 08:59:59;;;;;;;3.58;3.25;;;;;;;;;;4988652;28;20311;-68
2022/07/12 09:02:27;;;;;;;4.70;3.72;;;;;;;;;;4983685;28;20229;-67
2022/07/12 09:05:06;;;;;;;5.60;1.52;;;;;;;;;;4986088;28;20227;-67
2022/07/12 09:07:35;;;;;;;5.15;3.42;;;;;;;;;;4985762;28;20304;-67
2022/07/12 09:10:03;;;;;;;5.57;4.50;;;;;;;;;;4988023;28;20203;-68
2022/07/12 09:12:30;;;;;;;12.98;8.82;;;;;;;;;;4986114;28;20309;-68
2022/07/12 09:14:57;;;;;;;5.80;5.13;;;;;;;;;;4985704;28;22061;-69
2022/07/12 09:17:23;;;;;;;5.18;4.15;;;;;;;;;;4985054;28;20204;-69
2022/07/12 09:19:56;;;;;;;3.75;3.45;;;;;;;;;;4988592;28;21433;-69
2022/07/12 09:22:23;;;;;;;4.65;4.25;;;;;;;;;;4985310;28;20287;-67
2022/07/12 09:24:49;;;;;;;6.03;3.53;;;;;;;;;;4985872;28;20211;-69
2022/07/12 09:27:16;;;;;;;19.40;12.45;;;;;;;;;;4985946;28;20205;-69
2022/07/12 09:29:49;;;;;;;17.30;10.88;;;;;;;;;;4985813;28;20200;-69
2022/07/12 09:37:45;;;;;;;8.10;5.97;;;;;;;;;;4984990;28;20284;-69
2022/07/12 09:40:12;;;;;;;5.32;4.78;;;;;;;;;;4984543;28;20812;-69
2022/07/12 09:42:40;;;;;;;7.20;5.68;;;;;;;;;;4983577;28;20211;-69
2022/07/12 09:45:07;;;;;;;9.00;4.75;;;;;;;;;;4983001;28;20195;-70
2022/07/12 09:47:35;;;;;;;14.35;6.38;;;;;;;;;;4984909;28;20654;-70
2022/07/12 09:50:04;;;;;;;12.88;5.38;;;;;;;;;;4984336;28;20709;-69
2022/07/12 09:52:33;;;;;;;4.75;1.65;;;;;;;;;;4980018;28;20748;-69
2022/07/12 09:55:02;;;;;;;3.58;1.38;;;;;;;;;;4983020;28;20285;-68
2022/07/12 09:57:30;;;;;;;3.17;2.10;;;;;;;;;;4982557;28;20205;-70
2022/07/12 09:59:58;;;;;;;3.40;1.90;;;;;;;;;;4983321;28;20227;-68
2022/07/12 10:02:24;;;;;;;3.63;1.10;;;;;;;;;;4978090;28;20279;-68
2022/07/12 10:04:51;;;;;;;2.65;2.45;;;;;;;;;;4985342;28;22188;-70
2022/07/12 10:07:20;;;;;;;2.65;2.28;;;;;;;24.85;nan;95526.50;4987481;28;20274;-69
2022/07/12 10:09:47;;;;;;;5.25;4.20;;;;;;;;;;4988750;28;20196;-69
2022/07/12 10:12:16;;;;;;;4.00;3.03;;;;;;;;;;4989597;28;20717;-69
2022/07/12 10:14:43;;;;;;;4.22;1.70;;;;;;;;;;4988638;28;20207;-68
2022/07/12 10:17:10;;;;;;;2.50;1.55;;;;;;;;;;4989210;28;20770;-69
2022/07/12 10:19:37;;;;;;;2.42;1.90;;;;;;;;;;4990646;28;20448;-69
2022/07/12 10:22:04;;;;;;;3.45;2.30;;;;;;;;;;4989106;28;20207;-69
2022/07/12 10:24:48;;;;;;;3.10;2.30;;;;;;;;;;4990129;28;20210;-68
2022/07/12 10:27:28;;;;;;;2.30;1.73;;;;;;;;;;4990328;28;20211;-68
2022/07/12 10:30:12;;;;;;;4.75;3.00;;;;;;;;;;4990514;28;20214;-68
2022/07/12 10:32:40;;;;;;;6.45;2.00;;;;;;;;;;4987684;28;20780;-69
2022/07/12 10:35:07;;;;;;;7.10;3.25;;;;;;;;;;4989546;28;20207;-69
2022/07/12 10:37:34;;;;;;;2.72;1.55;;;;;;;;;;4989489;28;20212;-69
2022/07/12 10:40:13;;;;;;;2.90;1.80;;;;;;;;;;4988719;28;20236;-69
2022/07/12 10:42:40;;;;;;;1.70;1.60;;;;;;;;;;4988402;28;20650;-69
2022/07/12 10:45:14;;;;;;;4.75;1.98;;;;;;;;;;4989202;28;20208;-69
2022/07/12 10:47:56;;;;;;;1.95;1.55;;;;;;;;;;4988685;28;20215;-66
2022/07/12 10:50:37;;;;;;;2.33;1.38;;;;;;;;;;4990972;28;20207;-69
2022/07/12 10:53:18;;;;;;;4.88;3.22;;;;;;;;;;4987895;28;20671;-69
2022/07/12 10:56:07;;;;;;;3.13;2.45;;;;;;;;;;4989083;28;20266;-69
2022/07/12 10:58:34;;;;;;;4.00;2.10;;;;;;;;;;4988934;28;20685;-69
2022/07/12 11:01:02;;;;;;;4.90;3.55;;;;;;;;;;4989048;28;20212;-69
2022/07/12 11:03:31;;;;;;;2.85;2.45;;;;;;;;;;4987783;28;20203;-69
2022/07/12 11:06:01;;;;;;;5.03;1.80;;;;;;;;;;4988837;28;20234;-68
2022/07/12 11:08:28;;;;;;;2.55;1.35;;;;;;;;;;4989069;28;20222;-69
2022/07/12 11:10:59;;;;;;;2.83;1.30;;;;;;;;;;4989455;28;20215;-69
2022/07/12 11:13:26;;;;;;;1.50;1.40;;;;;;;;;;4988264;28;20199;-68
2022/07/12 11:15:59;;;;;;;5.68;1.80;;;;;;;;;;4989721;28;20297;-69
2022/07/12 11:18:28;;;;;;;1.92;1.20;;;;;;;;;;4998289;28;20253;-68
2022/07/12 11:20:55;;;;;;;2.55;1.35;;;;;;;;;;4996977;28;20682;-68
2022/07/12 11:23:22;;;;;;;2.65;1.73;;;;;;;;;;4991538;28;20199;-67
2022/07/12 11:25:49;;;;;;;2.30;2.10;;;;;;;;;;4988093;28;20214;-68
2022/07/12 11:28:18;;;;;;;5.60;1.60;;;;;;;;;;4987597;28;20226;-68
2022/07/12 11:30:48;;;;;;;2.30;1.50;;;;;;;;;;4988631;28;20273;-69
2022/07/12 11:33:15;;;;;;;2.85;1.55;;;;;;;;;;4987212;28;20732;-68
2022/07/12 11:35:44;;;;;;;2.03;1.20;;;;;;;;;;4988336;28;20207;-69
2022/07/12 11:38:10;;;;;;;4.15;3.05;;;;;;;;;;4988470;28;20653;-68
2022/07/12 11:40:37;;;;;;;3.60;2.30;;;;;;;;;;4988408;28;20219;-68
2022/07/12 11:43:04;;;;;;;2.83;1.70;;;;;;;;;;4986442;28;20215;-68
2022/07/12 11:45:33;;;;;;;1.00;1.00;;;;;;;;;;4988046;28;20604;-68
2022/07/12 11:48:01;;;;;;;1.48;1.02;;;;;;;;;;4988430;28;20208;-68
2022/07/12 11:50:29;;;;;;;1.70;1.60;;;;;;;24.26;nan;95529.59;4988843;28;20289;-69
2022/07/12 11:52:56;;;;;;;1.42;1.42;;;;;;;;;;4988286;28;20785;-69
2022/07/12 11:55:23;;;;;;;1.23;1.23;;;;;;;24.30;nan;95449.66;4987530;28;20259;-68
2022/07/12 11:57:49;;;;;;;1.58;1.23;;;;;;;;;;4989529;28;20266;-69
2022/07/12 12:00:17;;;;;;;2.55;1.30;;;;;;;;;;4990474;28;20215;-65
2022/07/12 12:02:45;;;;;;;87.85;57.05;;;;;;;;;;4995980;28;20674;-69
2022/07/12 12:05:12;;;;;;;25.17;17.40;;;;;;;;;;4998866;28;20791;-68
2022/07/12 12:07:39;;;;;;;51.75;34.50;;;;;;;;;;4999466;28;20285;-69
2022/07/12 12:10:06;;;;;;;3.92;1.60;;;;;;;;;;4998051;28;20266;-70
2022/07/12 12:12:39;;;;;;;2.13;1.17;;;;;;;;;;5000341;28;21456;-69
2022/07/12 12:15:06;;;;;;;1.58;1.30;;;;;;;;;;5000261;28;20234;-67
2022/07/12 12:17:34;;;;;;;1.85;1.20;;;;;;;;;;4991116;28;20207;-68
2022/07/12 12:20:10;;;;;;;3.50;1.45;;;;;;;;;;4990873;28;20298;-69
2022/07/12 12:22:38;;;;;;;5.20;1.60;;;;;;;24.78;nan;95436.97;4991332;28;20203;-69
2022/07/12 12:25:05;;;;;;;2.15;1.73;;;;;;;;;;4994071;28;22455;-68
2022/07/12 12:27:32;;;;;;;1.42;1.33;;;;;;;;;;4986357;28;20203;-69
2022/07/12 12:29:59;;;;;;;2.95;0.90;;;;;;;;;;4987825;28;20298;-68
2022/07/12 12:32:25;;;;;;;4.13;1.13;;;;;;;;;;4989576;28;20281;-69
2022/07/12 12:35:10;;;;;;;2.38;0.88;;;;;;;24.57;nan;95464.75;4991098;28;20216;-69
2022/07/12 12:37:37;;;;;;;1.33;1.23;;;;;;;;;;4988327;28;20214;-68
2022/07/12 12:40:04;;;;;;;2.80;1.17;;;;;;;;;;4988326;28;20302;-68
2022/07/12 12:42:31;;;;;;;1.52;1.50;;;;;;;;;;4988464;28;20218;-68
2022/07/12 12:44:57;;;;;;;1.30;1.20;;;;;;;;;;4990311;28;20214;-68
2022/07/12 12:50:07;;;;;;;1.77;1.27;;;;;;;;;;4992860;28;20223;-68
2022/07/12 12:52:48;;;;;;;1.20;1.20;;;;;;;;;;4990621;28;20658;-69
2022/07/12 12:55:14;;;;;;;7.30;1.67;;;;;;;;;;4992997;28;20296;-68
2022/07/12 12:57:41;;;;;;;1.42;1.20;;;;;;;;;;4988854;28;20741;-68
2022/07/12 13:00:08;;;;;;;2.35;1.08;;;;;;;;;;4996203;28;20215;-67
2022/07/12 13:02:34;;;;;;;1.55;1.45;;;;;;;;;;4988481;28;20740;-69
2022/07/12 13:05:01;;;;;;;3.63;1.45;;;;;;;;;;4995227;28;20231;-67
2022/07/12 13:07:28;;;;;;;2.72;2.40;;;;;;;;;;4990793;28;20270;-67
2022/07/12 13:09:56;;;;;;;9.57;8.43;;;;;;;;;;5041229;22;20240;-68
2022/07/12 13:12:23;;;;;;;14.85;9.73;;;;;;;;;;5030089;28;20229;-69
2022/07/12 13:14:51;;;;;;;13.73;8.93;;;;;;;;;;5035185;28;20763;-69
2022/07/12 13:17:17;;;;;;;3.53;3.30;;;;;;;;;;5030889;28;20259;-69
2022/07/12 13:19:44;;;;;;;5.95;4.63;;;;;;;;;;5030941;28;20751;-68
2022/07/12 13:22:10;;;;;;;6.90;5.68;;;;;;;;;;5031299;28;20451;-66
2022/07/12 13:24:37;;;;;;;4.95;4.47;;;;;;;;;;5036869;28;20210;-67
2022/07/12 13:27:05;;;;;;;12.50;8.10;;;;;;;;;;5029966;28;20230;-68
2022/07/12 13:29:31;;;;;;;14.65;11.02;;;;;;;;;;5035037;28;20207;-69
2022/07/12 13:31:58;;;;;;;13.45;6.88;;;;;;;;;;5032614;28;20207;-68
2022/07/12 13:34:24;;;;;;;5.97;4.40;;;;;;;;;;5030932;28;20271;-68
2022/07/12 13:36:52;;;;;;;4.72;3.50;;;;;;;;;;5030118;28;20207;-68
2022/07/12 13:42:02;;;;;;;2.38;2.17;;;;;;;;;;5030896;28;20209;-68
2022/07/12 13:44:30;;;;;;;3.10;2.80;;;;;;;;;;5031720;28;20205;-67
2022/07/12 13:46:57;;;;;;;2.50;2.40;;;;;;;;;;5028604;28;20660;-69
2022/07/12 13:49:23;;;;;;;4.18;3.85;;;;;;;;;;5030375;28;21074;-69
2022/07/12 13:51:50;;;;;;;5.45;4.97;;;;;;;;;;5026670;28;20220;-67
2022/07/12 13:54:16;;;;;;;7.82;6.90;;;;;;;;;;5026955;28;20635;-68
2022/07/12 13:56:43;;;;;;;10.90;9.48;;;;;;;;;;5027022;28;20237;-69
2022/07/12 13:59:10;;;;;;;4.45;4.05;;;;;;;;;;5026130;28;20210;-68